sensor_id;sensor_type;location;lat;lon;timestamp;pressure;altitude;pressure_sealevel;temperature
73937;BMP180;59249;59.736;30.568;2023-02-14T00:00:18;100802.00;;;2.10
73937;BMP180;59249;59.736;30.568;2023-02-14T00:02:49;100808.00;;;2.10
73937;BMP180;59249;59.736;30.568;2023-02-14T00:05:18;100805.00;;;2.00
73937;BMP180;59249;59.736;30.568;2023-02-14T00:07:46;100796.00;;;2.00
73937;BMP180;59249;59.736;30.568;2023-02-14T00:10:16;100818.00;;;2.00
73937;BMP180;59249;59.736;30.568;2023-02-14T00:12:44;100823.00;;;2.00
73937;BMP180;59249;59.736;30.568;2023-02-14T00:15:13;100814.00;;;2.00
73937;BMP180;59249;59.736;30.568;2023-02-14T00:17:54;100831.00;;;2.00
73937;BMP180;59249;59.736;30.568;2023-02-14T00:20:26;100823.00;;;2.10
73937;BMP180;59249;59.736;30.568;2023-02-14T00:22:55;100827.00;;;2.10
73937;BMP180;59249;59.736;30.568;2023-02-14T00:25:24;100848.00;;;2.20
73937;BMP180;59249;59.736;30.568;2023-02-14T00:27:52;100847.00;;;2.10
73937;BMP180;59249;59.736;30.568;2023-02-14T00:30:21;100844.00;;;2.10
73937;BMP180;59249;59.736;30.568;2023-02-14T00:32:52;100847.00;;;2.20
73937;BMP180;59249;59.736;30.568;2023-02-14T00:35:20;100861.00;;;2.10
73937;BMP180;59249;59.736;30.568;2023-02-14T00:37:49;100839.00;;;2.20
73937;BMP180;59249;59.736;30.568;2023-02-14T00:40:18;100879.00;;;2.20
73937;BMP180;59249;59.736;30.568;2023-02-14T00:42:47;100912.00;;;2.20
73937;BMP180;59249;59.736;30.568;2023-02-14T00:45:16;100881.00;;;2.20
73937;BMP180;59249;59.736;30.568;2023-02-14T00:47:46;100875.00;;;2.20
73937;BMP180;59249;59.736;30.568;2023-02-14T00:50:16;100869.00;;;2.20
73937;BMP180;59249;59.736;30.568;2023-02-14T00:52:45;100890.00;;;2.20
73937;BMP180;59249;59.736;30.568;2023-02-14T00:55:13;100863.00;;;2.20
73937;BMP180;59249;59.736;30.568;2023-02-14T00:57:42;100907.00;;;2.20
73937;BMP180;59249;59.736;30.568;2023-02-14T01:00:12;100903.00;;;2.20
73937;BMP180;59249;59.736;30.568;2023-02-14T01:02:41;100911.00;;;2.30
73937;BMP180;59249;59.736;30.568;2023-02-14T01:05:10;100921.00;;;2.30
73937;BMP180;59249;59.736;30.568;2023-02-14T01:07:40;100897.00;;;2.20
73937;BMP180;59249;59.736;30.568;2023-02-14T01:10:10;100941.00;;;2.20
73937;BMP180;59249;59.736;30.568;2023-02-14T01:12:39;100952.00;;;2.10
73937;BMP180;59249;59.736;30.568;2023-02-14T01:15:08;100923.00;;;2.20
73937;BMP180;59249;59.736;30.568;2023-02-14T01:17:37;100916.00;;;2.10
73937;BMP180;59249;59.736;30.568;2023-02-14T01:20:07;100942.00;;;2.10
73937;BMP180;59249;59.736;30.568;2023-02-14T01:22:37;100983.00;;;2.10
73937;BMP180;59249;59.736;30.568;2023-02-14T01:25:08;100958.00;;;2.10
73937;BMP180;59249;59.736;30.568;2023-02-14T01:27:38;100955.00;;;2.30
73937;BMP180;59249;59.736;30.568;2023-02-14T01:30:07;100929.00;;;2.20
73937;BMP180;59249;59.736;30.568;2023-02-14T01:32:37;100963.00;;;2.10
73937;BMP180;59249;59.736;30.568;2023-02-14T01:35:06;100946.00;;;2.10
73937;BMP180;59249;59.736;30.568;2023-02-14T01:37:35;100938.00;;;2.10
73937;BMP180;59249;59.736;30.568;2023-02-14T01:40:07;100956.00;;;2.10
73937;BMP180;59249;59.736;30.568;2023-02-14T01:42:38;100996.00;;;2.00
73937;BMP180;59249;59.736;30.568;2023-02-14T01:45:14;100989.00;;;2.10
73937;BMP180;59249;59.736;30.568;2023-02-14T01:47:48;100992.00;;;2.00
73937;BMP180;59249;59.736;30.568;2023-02-14T01:50:22;100991.00;;;2.10
73937;BMP180;59249;59.736;30.568;2023-02-14T01:52:57;100999.00;;;2.00
73937;BMP180;59249;59.736;30.568;2023-02-14T01:55:35;100995.00;;;2.00
73937;BMP180;59249;59.736;30.568;2023-02-14T01:58:09;101037.00;;;2.00
73937;BMP180;59249;59.736;30.568;2023-02-14T02:00:41;101047.00;;;1.90
73937;BMP180;59249;59.736;30.568;2023-02-14T02:03:30;101024.00;;;2.00
73937;BMP180;59249;59.736;30.568;2023-02-14T02:06:06;101073.00;;;1.90
73937;BMP180;59249;59.736;30.568;2023-02-14T02:08:40;101052.00;;;1.90
73937;BMP180;59249;59.736;30.568;2023-02-14T02:11:16;101087.00;;;1.80
73937;BMP180;59249;59.736;30.568;2023-02-14T02:13:46;101074.00;;;1.80
73937;BMP180;59249;59.736;30.568;2023-02-14T02:17:07;101071.00;;;1.80
73937;BMP180;59249;59.736;30.568;2023-02-14T02:20:07;101068.00;;;1.80
73937;BMP180;59249;59.736;30.568;2023-02-14T02:23:33;101066.00;;;1.70
73937;BMP180;59249;59.736;30.568;2023-02-14T02:26:44;101074.00;;;1.60
73937;BMP180;59249;59.736;30.568;2023-02-14T02:36:55;101096.00;;;1.50
73937;BMP180;59249;59.736;30.568;2023-02-14T02:39:55;101091.00;;;1.40
73937;BMP180;59249;59.736;30.568;2023-02-14T02:42:36;101122.00;;;1.40
73937;BMP180;59249;59.736;30.568;2023-02-14T02:45:22;101105.00;;;1.40
73937;BMP180;59249;59.736;30.568;2023-02-14T02:48:02;101119.00;;;1.40
73937;BMP180;59249;59.736;30.568;2023-02-14T02:50:40;101105.00;;;1.40
73937;BMP180;59249;59.736;30.568;2023-02-14T02:53:38;101135.00;;;1.40
73937;BMP180;59249;59.736;30.568;2023-02-14T02:56:15;101139.00;;;1.40
73937;BMP180;59249;59.736;30.568;2023-02-14T02:59:09;101131.00;;;1.30
73937;BMP180;59249;59.736;30.568;2023-02-14T03:01:58;101129.00;;;1.20
73937;BMP180;59249;59.736;30.568;2023-02-14T03:04:33;101142.00;;;1.10
73937;BMP180;59249;59.736;30.568;2023-02-14T03:07:30;101136.00;;;1.10
73937;BMP180;59249;59.736;30.568;2023-02-14T03:10:12;101140.00;;;1.00
73937;BMP180;59249;59.736;30.568;2023-02-14T03:13:08;101155.00;;;0.90
73937;BMP180;59249;59.736;30.568;2023-02-14T03:15:56;101148.00;;;0.80
73937;BMP180;59249;59.736;30.568;2023-02-14T03:18:48;101156.00;;;0.90
73937;BMP180;59249;59.736;30.568;2023-02-14T03:21:52;101156.00;;;0.90
73937;BMP180;59249;59.736;30.568;2023-02-14T03:24:28;101154.00;;;0.80
73937;BMP180;59249;59.736;30.568;2023-02-14T03:27:09;101161.00;;;0.90
73937;BMP180;59249;59.736;30.568;2023-02-14T03:29:52;101163.00;;;1.00
73937;BMP180;59249;59.736;30.568;2023-02-14T03:32:32;101161.00;;;0.90
73937;BMP180;59249;59.736;30.568;2023-02-14T03:35:11;101176.00;;;0.90
73937;BMP180;59249;59.736;30.568;2023-02-14T03:37:48;101167.00;;;0.90
73937;BMP180;59249;59.736;30.568;2023-02-14T03:40:25;101199.00;;;0.80
73937;BMP180;59249;59.736;30.568;2023-02-14T03:43:00;101211.00;;;0.90
73937;BMP180;59249;59.736;30.568;2023-02-14T03:45:36;101200.00;;;1.00
73937;BMP180;59249;59.736;30.568;2023-02-14T03:48:10;101211.00;;;1.10
73937;BMP180;59249;59.736;30.568;2023-02-14T03:50:43;101212.00;;;1.10
73937;BMP180;59249;59.736;30.568;2023-02-14T03:53:17;101199.00;;;1.10
73937;BMP180;59249;59.736;30.568;2023-02-14T03:55:54;101216.00;;;1.10
73937;BMP180;59249;59.736;30.568;2023-02-14T03:58:31;101240.00;;;1.20
73937;BMP180;59249;59.736;30.568;2023-02-14T04:01:07;101253.00;;;1.30
73937;BMP180;59249;59.736;30.568;2023-02-14T04:03:41;101243.00;;;1.40
73937;BMP180;59249;59.736;30.568;2023-02-14T04:06:11;101258.00;;;1.50
73937;BMP180;59249;59.736;30.568;2023-02-14T04:08:40;101247.00;;;1.50
73937;BMP180;59249;59.736;30.568;2023-02-14T04:11:09;101245.00;;;1.50
73937;BMP180;59249;59.736;30.568;2023-02-14T04:13:39;101277.00;;;1.60
73937;BMP180;59249;59.736;30.568;2023-02-14T04:16:08;101268.00;;;1.60
73937;BMP180;59249;59.736;30.568;2023-02-14T04:18:37;101275.00;;;1.60
73937;BMP180;59249;59.736;30.568;2023-02-14T04:21:23;101275.00;;;1.60
73937;BMP180;59249;59.736;30.568;2023-02-14T04:23:52;101284.00;;;1.60
73937;BMP180;59249;59.736;30.568;2023-02-14T04:26:20;101296.00;;;1.70
73937;BMP180;59249;59.736;30.568;2023-02-14T04:28:50;101292.00;;;1.70
73937;BMP180;59249;59.736;30.568;2023-02-14T04:31:19;101315.00;;;1.70
73937;BMP180;59249;59.736;30.568;2023-02-14T04:33:48;101331.00;;;1.80
73937;BMP180;59249;59.736;30.568;2023-02-14T04:36:17;101313.00;;;1.80
73937;BMP180;59249;59.736;30.568;2023-02-14T04:38:45;101307.00;;;1.80
73937;BMP180;59249;59.736;30.568;2023-02-14T04:41:14;101334.00;;;1.80
73937;BMP180;59249;59.736;30.568;2023-02-14T04:43:43;101351.00;;;1.80
73937;BMP180;59249;59.736;30.568;2023-02-14T04:46:13;101339.00;;;1.90
73937;BMP180;59249;59.736;30.568;2023-02-14T04:48:41;101337.00;;;2.00
73937;BMP180;59249;59.736;30.568;2023-02-14T04:51:10;101361.00;;;1.90
73937;BMP180;59249;59.736;30.568;2023-02-14T04:53:39;101362.00;;;1.90
73937;BMP180;59249;59.736;30.568;2023-02-14T04:56:08;101368.00;;;1.90
73937;BMP180;59249;59.736;30.568;2023-02-14T04:58:36;101357.00;;;2.00
73937;BMP180;59249;59.736;30.568;2023-02-14T05:01:06;101378.00;;;2.10
73937;BMP180;59249;59.736;30.568;2023-02-14T05:03:36;101392.00;;;2.00
73937;BMP180;59249;59.736;30.568;2023-02-14T05:06:05;101381.00;;;2.10
73937;BMP180;59249;59.736;30.568;2023-02-14T05:08:34;101383.00;;;2.00
73937;BMP180;59249;59.736;30.568;2023-02-14T05:11:02;101393.00;;;2.10
73937;BMP180;59249;59.736;30.568;2023-02-14T05:13:31;101385.00;;;2.20
73937;BMP180;59249;59.736;30.568;2023-02-14T05:16:00;101395.00;;;2.10
73937;BMP180;59249;59.736;30.568;2023-02-14T05:18:29;101394.00;;;2.20
73937;BMP180;59249;59.736;30.568;2023-02-14T05:20:59;101398.00;;;2.20
73937;BMP180;59249;59.736;30.568;2023-02-14T05:23:28;101400.00;;;2.20
73937;BMP180;59249;59.736;30.568;2023-02-14T05:25:57;101385.00;;;2.10
73937;BMP180;59249;59.736;30.568;2023-02-14T05:28:25;101388.00;;;2.10
73937;BMP180;59249;59.736;30.568;2023-02-14T05:30:54;101378.00;;;2.10
73937;BMP180;59249;59.736;30.568;2023-02-14T05:33:25;101378.00;;;2.10
73937;BMP180;59249;59.736;30.568;2023-02-14T05:35:53;101393.00;;;2.30
73937;BMP180;59249;59.736;30.568;2023-02-14T05:38:23;101380.00;;;2.20
73937;BMP180;59249;59.736;30.568;2023-02-14T05:40:52;101388.00;;;2.10
73937;BMP180;59249;59.736;30.568;2023-02-14T05:43:21;101398.00;;;2.10
73937;BMP180;59249;59.736;30.568;2023-02-14T05:45:50;101404.00;;;2.00
73937;BMP180;59249;59.736;30.568;2023-02-14T05:48:20;101419.00;;;2.00
73937;BMP180;59249;59.736;30.568;2023-02-14T05:50:48;101410.00;;;2.00
73937;BMP180;59249;59.736;30.568;2023-02-14T05:53:17;101414.00;;;1.90
73937;BMP180;59249;59.736;30.568;2023-02-14T05:55:47;101428.00;;;2.10
73937;BMP180;59249;59.736;30.568;2023-02-14T05:58:16;101429.00;;;2.00
73937;BMP180;59249;59.736;30.568;2023-02-14T06:00:45;101446.00;;;1.90
73937;BMP180;59249;59.736;30.568;2023-02-14T06:03:13;101451.00;;;1.80
73937;BMP180;59249;59.736;30.568;2023-02-14T06:05:42;101471.00;;;1.80
73937;BMP180;59249;59.736;30.568;2023-02-14T06:08:11;101478.00;;;1.80
73937;BMP180;59249;59.736;30.568;2023-02-14T06:10:39;101463.00;;;1.70
73937;BMP180;59249;59.736;30.568;2023-02-14T06:13:09;101481.00;;;1.80
73937;BMP180;59249;59.736;30.568;2023-02-14T06:15:38;101502.00;;;1.80
73937;BMP180;59249;59.736;30.568;2023-02-14T06:18:09;101504.00;;;1.70
73937;BMP180;59249;59.736;30.568;2023-02-14T06:20:41;101497.00;;;1.80
73937;BMP180;59249;59.736;30.568;2023-02-14T06:23:18;101514.00;;;1.70
73937;BMP180;59249;59.736;30.568;2023-02-14T06:25:51;101525.00;;;1.80
73937;BMP180;59249;59.736;30.568;2023-02-14T06:28:26;101527.00;;;1.80
73937;BMP180;59249;59.736;30.568;2023-02-14T06:30:59;101521.00;;;1.70
73937;BMP180;59249;59.736;30.568;2023-02-14T06:33:28;101523.00;;;1.70
73937;BMP180;59249;59.736;30.568;2023-02-14T06:35:57;101528.00;;;1.70
73937;BMP180;59249;59.736;30.568;2023-02-14T06:38:26;101540.00;;;1.80
73937;BMP180;59249;59.736;30.568;2023-02-14T06:41:02;101506.00;;;1.80
73937;BMP180;59249;59.736;30.568;2023-02-14T06:43:33;101558.00;;;1.70
73937;BMP180;59249;59.736;30.568;2023-02-14T06:46:02;101563.00;;;1.70
73937;BMP180;59249;59.736;30.568;2023-02-14T06:48:31;101563.00;;;1.80
73937;BMP180;59249;59.736;30.568;2023-02-14T06:51:00;101569.00;;;1.70
73937;BMP180;59249;59.736;30.568;2023-02-14T06:53:29;101568.00;;;1.70
73937;BMP180;59249;59.736;30.568;2023-02-14T06:55:57;101578.00;;;1.80
73937;BMP180;59249;59.736;30.568;2023-02-14T06:58:26;101565.00;;;1.80
73937;BMP180;59249;59.736;30.568;2023-02-14T07:00:57;101568.00;;;1.80
73937;BMP180;59249;59.736;30.568;2023-02-14T07:03:26;101582.00;;;1.80
73937;BMP180;59249;59.736;30.568;2023-02-14T07:05:56;101572.00;;;1.70
73937;BMP180;59249;59.736;30.568;2023-02-14T07:08:25;101575.00;;;1.70
73937;BMP180;59249;59.736;30.568;2023-02-14T07:10:54;101600.00;;;1.70
73937;BMP180;59249;59.736;30.568;2023-02-14T07:13:24;101603.00;;;1.70
73937;BMP180;59249;59.736;30.568;2023-02-14T07:15:53;101609.00;;;1.70
73937;BMP180;59249;59.736;30.568;2023-02-14T07:18:23;101630.00;;;1.60
73937;BMP180;59249;59.736;30.568;2023-02-14T07:20:52;101627.00;;;1.60
73937;BMP180;59249;59.736;30.568;2023-02-14T07:23:21;101623.00;;;1.70
73937;BMP180;59249;59.736;30.568;2023-02-14T07:25:49;101628.00;;;1.70
73937;BMP180;59249;59.736;30.568;2023-02-14T07:28:18;101634.00;;;1.70
73937;BMP180;59249;59.736;30.568;2023-02-14T07:30:47;101632.00;;;1.60
73937;BMP180;59249;59.736;30.568;2023-02-14T07:33:15;101650.00;;;1.70
73937;BMP180;59249;59.736;30.568;2023-02-14T07:35:45;101648.00;;;1.90
73937;BMP180;59249;59.736;30.568;2023-02-14T07:38:14;101648.00;;;1.70
73937;BMP180;59249;59.736;30.568;2023-02-14T07:40:43;101645.00;;;1.70
73937;BMP180;59249;59.736;30.568;2023-02-14T07:43:12;101649.00;;;1.60
73937;BMP180;59249;59.736;30.568;2023-02-14T07:45:40;101653.00;;;1.60
73937;BMP180;59249;59.736;30.568;2023-02-14T07:48:09;101664.00;;;1.60
73937;BMP180;59249;59.736;30.568;2023-02-14T07:50:38;101678.00;;;1.60
73937;BMP180;59249;59.736;30.568;2023-02-14T07:53:08;101672.00;;;1.70
73937;BMP180;59249;59.736;30.568;2023-02-14T07:55:37;101690.00;;;1.70
73937;BMP180;59249;59.736;30.568;2023-02-14T07:58:06;101708.00;;;1.70
73937;BMP180;59249;59.736;30.568;2023-02-14T08:00:35;101708.00;;;1.60
73937;BMP180;59249;59.736;30.568;2023-02-14T08:03:04;101701.00;;;1.80
73937;BMP180;59249;59.736;30.568;2023-02-14T08:05:32;101711.00;;;1.80
73937;BMP180;59249;59.736;30.568;2023-02-14T08:08:02;101710.00;;;1.80
73937;BMP180;59249;59.736;30.568;2023-02-14T08:10:32;101719.00;;;1.70
73937;BMP180;59249;59.736;30.568;2023-02-14T08:13:01;101724.00;;;1.70
73937;BMP180;59249;59.736;30.568;2023-02-14T08:15:30;101713.00;;;1.80
73937;BMP180;59249;59.736;30.568;2023-02-14T08:18:19;101760.00;;;1.70
73937;BMP180;59249;59.736;30.568;2023-02-14T08:20:50;101748.00;;;1.80
73937;BMP180;59249;59.736;30.568;2023-02-14T08:23:19;101740.00;;;1.80
73937;BMP180;59249;59.736;30.568;2023-02-14T08:25:50;101745.00;;;1.80
73937;BMP180;59249;59.736;30.568;2023-02-14T08:28:20;101738.00;;;1.70
73937;BMP180;59249;59.736;30.568;2023-02-14T08:30:49;101754.00;;;1.70
73937;BMP180;59249;59.736;30.568;2023-02-14T08:33:19;101754.00;;;1.80
73937;BMP180;59249;59.736;30.568;2023-02-14T08:35:50;101772.00;;;1.70
73937;BMP180;59249;59.736;30.568;2023-02-14T08:38:19;101752.00;;;1.70
73937;BMP180;59249;59.736;30.568;2023-02-14T08:40:49;101756.00;;;1.70
73937;BMP180;59249;59.736;30.568;2023-02-14T08:43:18;101762.00;;;1.80
73937;BMP180;59249;59.736;30.568;2023-02-14T08:45:51;101775.00;;;1.70
73937;BMP180;59249;59.736;30.568;2023-02-14T08:48:19;101784.00;;;1.80
73937;BMP180;59249;59.736;30.568;2023-02-14T08:50:49;101787.00;;;1.90
73937;BMP180;59249;59.736;30.568;2023-02-14T08:53:18;101809.00;;;2.00
73937;BMP180;59249;59.736;30.568;2023-02-14T08:55:49;101791.00;;;2.00
73937;BMP180;59249;59.736;30.568;2023-02-14T08:58:18;101808.00;;;2.00
73937;BMP180;59249;59.736;30.568;2023-02-14T09:00:47;101809.00;;;2.20
73937;BMP180;59249;59.736;30.568;2023-02-14T09:03:15;101807.00;;;2.20
73937;BMP180;59249;59.736;30.568;2023-02-14T09:05:44;101819.00;;;2.10
73937;BMP180;59249;59.736;30.568;2023-02-14T09:08:13;101820.00;;;2.10
73937;BMP180;59249;59.736;30.568;2023-02-14T09:10:42;101824.00;;;2.50
73937;BMP180;59249;59.736;30.568;2023-02-14T09:13:12;101833.00;;;2.30
73937;BMP180;59249;59.736;30.568;2023-02-14T09:15:41;101837.00;;;2.20
73937;BMP180;59249;59.736;30.568;2023-02-14T09:18:10;101836.00;;;2.20
73937;BMP180;59249;59.736;30.568;2023-02-14T09:20:38;101838.00;;;2.30
73937;BMP180;59249;59.736;30.568;2023-02-14T09:23:07;101833.00;;;2.40
73937;BMP180;59249;59.736;30.568;2023-02-14T09:25:36;101836.00;;;2.50
73937;BMP180;59249;59.736;30.568;2023-02-14T09:28:05;101836.00;;;2.30
73937;BMP180;59249;59.736;30.568;2023-02-14T09:30:36;101830.00;;;2.50
73937;BMP180;59249;59.736;30.568;2023-02-14T09:33:05;101840.00;;;2.40
73937;BMP180;59249;59.736;30.568;2023-02-14T09:35:34;101848.00;;;2.50
73937;BMP180;59249;59.736;30.568;2023-02-14T09:38:06;101862.00;;;2.60
73937;BMP180;59249;59.736;30.568;2023-02-14T09:40:45;101872.00;;;2.40
73937;BMP180;59249;59.736;30.568;2023-02-14T09:43:20;101880.00;;;2.40
73937;BMP180;59249;59.736;30.568;2023-02-14T09:45:58;101874.00;;;2.40
73937;BMP180;59249;59.736;30.568;2023-02-14T09:48:33;101871.00;;;2.60
73937;BMP180;59249;59.736;30.568;2023-02-14T09:51:06;101893.00;;;2.70
73937;BMP180;59249;59.736;30.568;2023-02-14T09:53:43;101882.00;;;2.60
73937;BMP180;59249;59.736;30.568;2023-02-14T09:56:20;101885.00;;;2.90
73937;BMP180;59249;59.736;30.568;2023-02-14T09:59:00;101900.00;;;2.90
73937;BMP180;59249;59.736;30.568;2023-02-14T10:01:41;101901.00;;;2.90
73937;BMP180;59249;59.736;30.568;2023-02-14T10:04:21;101889.00;;;2.80
73937;BMP180;59249;59.736;30.568;2023-02-14T10:07:05;101915.00;;;2.90
73937;BMP180;59249;59.736;30.568;2023-02-14T10:09:50;101915.00;;;2.70
73937;BMP180;59249;59.736;30.568;2023-02-14T10:12:28;101906.00;;;2.50
73937;BMP180;59249;59.736;30.568;2023-02-14T10:15:11;101916.00;;;2.50
73937;BMP180;59249;59.736;30.568;2023-02-14T10:17:46;101920.00;;;2.60
73937;BMP180;59249;59.736;30.568;2023-02-14T10:20:24;101920.00;;;2.70
73937;BMP180;59249;59.736;30.568;2023-02-14T10:23:02;101936.00;;;3.10
73937;BMP180;59249;59.736;30.568;2023-02-14T10:25:39;101933.00;;;2.70
73937;BMP180;59249;59.736;30.568;2023-02-14T10:28:13;101931.00;;;2.80
73937;BMP180;59249;59.736;30.568;2023-02-14T10:30:48;101944.00;;;2.80
73937;BMP180;59249;59.736;30.568;2023-02-14T10:33:27;101936.00;;;2.60
73937;BMP180;59249;59.736;30.568;2023-02-14T10:36:04;101951.00;;;2.90
73937;BMP180;59249;59.736;30.568;2023-02-14T10:38:49;101972.00;;;2.70
73937;BMP180;59249;59.736;30.568;2023-02-14T10:41:31;101955.00;;;2.70
73937;BMP180;59249;59.736;30.568;2023-02-14T10:44:24;101952.00;;;3.00
73937;BMP180;59249;59.736;30.568;2023-02-14T10:47:09;101949.00;;;2.80
73937;BMP180;59249;59.736;30.568;2023-02-14T10:49:57;101969.00;;;2.80
73937;BMP180;59249;59.736;30.568;2023-02-14T10:52:38;101963.00;;;2.80
73937;BMP180;59249;59.736;30.568;2023-02-14T10:55:12;101961.00;;;2.80
73937;BMP180;59249;59.736;30.568;2023-02-14T10:58:02;101961.00;;;2.90
73937;BMP180;59249;59.736;30.568;2023-02-14T11:00:35;101965.00;;;2.90
73937;BMP180;59249;59.736;30.568;2023-02-14T11:03:08;101974.00;;;2.90
73937;BMP180;59249;59.736;30.568;2023-02-14T11:05:43;101992.00;;;2.90
73937;BMP180;59249;59.736;30.568;2023-02-14T11:08:25;101970.00;;;2.80
73937;BMP180;59249;59.736;30.568;2023-02-14T11:11:02;101984.00;;;3.00
73937;BMP180;59249;59.736;30.568;2023-02-14T11:13:36;101980.00;;;3.00
73937;BMP180;59249;59.736;30.568;2023-02-14T11:16:08;101981.00;;;3.10
73937;BMP180;59249;59.736;30.568;2023-02-14T11:18:39;101979.00;;;3.10
73937;BMP180;59249;59.736;30.568;2023-02-14T11:21:11;101974.00;;;3.00
73937;BMP180;59249;59.736;30.568;2023-02-14T11:23:45;101985.00;;;3.00
73937;BMP180;59249;59.736;30.568;2023-02-14T11:26:20;102000.00;;;3.30
73937;BMP180;59249;59.736;30.568;2023-02-14T11:28:55;101993.00;;;3.00
73937;BMP180;59249;59.736;30.568;2023-02-14T11:31:28;101994.00;;;3.10
73937;BMP180;59249;59.736;30.568;2023-02-14T11:34:00;102002.00;;;3.00
73937;BMP180;59249;59.736;30.568;2023-02-14T11:36:39;102003.00;;;3.00
73937;BMP180;59249;59.736;30.568;2023-02-14T11:39:24;102005.00;;;3.00
73937;BMP180;59249;59.736;30.568;2023-02-14T11:41:58;102002.00;;;3.00
73937;BMP180;59249;59.736;30.568;2023-02-14T11:44:31;102006.00;;;3.00
73937;BMP180;59249;59.736;30.568;2023-02-14T11:47:24;102011.00;;;3.10
73937;BMP180;59249;59.736;30.568;2023-02-14T11:49:56;102017.00;;;3.20
73937;BMP180;59249;59.736;30.568;2023-02-14T11:52:29;102003.00;;;3.30
73937;BMP180;59249;59.736;30.568;2023-02-14T11:54:58;102011.00;;;3.20
73937;BMP180;59249;59.736;30.568;2023-02-14T11:57:32;102015.00;;;3.30
73937;BMP180;59249;59.736;30.568;2023-02-14T12:00:13;102015.00;;;3.20
73937;BMP180;59249;59.736;30.568;2023-02-14T12:02:45;102021.00;;;3.20
73937;BMP180;59249;59.736;30.568;2023-02-14T12:05:18;102031.00;;;3.30
73937;BMP180;59249;59.736;30.568;2023-02-14T12:07:51;102030.00;;;3.20
73937;BMP180;59249;59.736;30.568;2023-02-14T12:10:24;102037.00;;;3.20
73937;BMP180;59249;59.736;30.568;2023-02-14T12:12:57;102038.00;;;3.40
73937;BMP180;59249;59.736;30.568;2023-02-14T12:15:30;102042.00;;;3.20
73937;BMP180;59249;59.736;30.568;2023-02-14T12:21:31;102052.00;;;3.20
73937;BMP180;59249;59.736;30.568;2023-02-14T12:24:18;102047.00;;;3.00
73937;BMP180;59249;59.736;30.568;2023-02-14T12:27:03;102046.00;;;3.00
73937;BMP180;59249;59.736;30.568;2023-02-14T12:29:44;102056.00;;;3.00
73937;BMP180;59249;59.736;30.568;2023-02-14T12:32:21;102061.00;;;3.10
73937;BMP180;59249;59.736;30.568;2023-02-14T12:34:54;102071.00;;;3.10
73937;BMP180;59249;59.736;30.568;2023-02-14T12:37:43;102068.00;;;3.00
73937;BMP180;59249;59.736;30.568;2023-02-14T12:40:37;102060.00;;;3.00
73937;BMP180;59249;59.736;30.568;2023-02-14T12:43:39;102072.00;;;3.10
73937;BMP180;59249;59.736;30.568;2023-02-14T12:46:23;102067.00;;;3.00
73937;BMP180;59249;59.736;30.568;2023-02-14T12:52:11;102079.00;;;3.20
73937;BMP180;59249;59.736;30.568;2023-02-14T12:58:01;102079.00;;;3.20
73937;BMP180;59249;59.736;30.568;2023-02-14T13:00:44;102090.00;;;3.20
73937;BMP180;59249;59.736;30.568;2023-02-14T13:03:43;102100.00;;;3.10
73937;BMP180;59249;59.736;30.568;2023-02-14T13:06:29;102098.00;;;3.10
73937;BMP180;59249;59.736;30.568;2023-02-14T13:09:18;102114.00;;;3.00
73937;BMP180;59249;59.736;30.568;2023-02-14T13:12:06;102109.00;;;3.00
73937;BMP180;59249;59.736;30.568;2023-02-14T13:15:00;102106.00;;;3.10
73937;BMP180;59249;59.736;30.568;2023-02-14T13:17:45;102107.00;;;3.10
73937;BMP180;59249;59.736;30.568;2023-02-14T13:20:35;102115.00;;;3.10
73937;BMP180;59249;59.736;30.568;2023-02-14T13:23:12;102116.00;;;3.00
73937;BMP180;59249;59.736;30.568;2023-02-14T13:25:47;102115.00;;;3.10
73937;BMP180;59249;59.736;30.568;2023-02-14T13:28:18;102117.00;;;3.00
73937;BMP180;59249;59.736;30.568;2023-02-14T13:30:50;102117.00;;;3.00
73937;BMP180;59249;59.736;30.568;2023-02-14T13:33:25;102130.00;;;3.00
73937;BMP180;59249;59.736;30.568;2023-02-14T13:36:02;102113.00;;;3.00
73937;BMP180;59249;59.736;30.568;2023-02-14T13:38:39;102117.00;;;3.00
73937;BMP180;59249;59.736;30.568;2023-02-14T13:41:12;102130.00;;;2.90
73937;BMP180;59249;59.736;30.568;2023-02-14T13:43:53;102138.00;;;2.80
73937;BMP180;59249;59.736;30.568;2023-02-14T13:46:45;102148.00;;;2.80
73937;BMP180;59249;59.736;30.568;2023-02-14T13:49:28;102145.00;;;2.80
73937;BMP180;59249;59.736;30.568;2023-02-14T13:52:00;102140.00;;;2.80
73937;BMP180;59249;59.736;30.568;2023-02-14T13:54:33;102145.00;;;2.80
73937;BMP180;59249;59.736;30.568;2023-02-14T13:57:24;102145.00;;;2.70
73937;BMP180;59249;59.736;30.568;2023-02-14T14:00:28;102150.00;;;2.70
73937;BMP180;59249;59.736;30.568;2023-02-14T14:03:14;102146.00;;;2.60
73937;BMP180;59249;59.736;30.568;2023-02-14T14:06:06;102147.00;;;2.60
73937;BMP180;59249;59.736;30.568;2023-02-14T14:08:46;102147.00;;;2.50
73937;BMP180;59249;59.736;30.568;2023-02-14T14:14:33;102153.00;;;2.60
73937;BMP180;59249;59.736;30.568;2023-02-14T14:17:21;102142.00;;;2.40
73937;BMP180;59249;59.736;30.568;2023-02-14T14:19:53;102142.00;;;2.30
73937;BMP180;59249;59.736;30.568;2023-02-14T14:22:26;102150.00;;;2.20
73937;BMP180;59249;59.736;30.568;2023-02-14T14:24:58;102156.00;;;2.00
73937;BMP180;59249;59.736;30.568;2023-02-14T14:27:33;102150.00;;;1.90
73937;BMP180;59249;59.736;30.568;2023-02-14T14:30:17;102153.00;;;1.80
73937;BMP180;59249;59.736;30.568;2023-02-14T14:32:48;102153.00;;;1.70
73937;BMP180;59249;59.736;30.568;2023-02-14T14:35:19;102138.00;;;1.60
73937;BMP180;59249;59.736;30.568;2023-02-14T14:37:52;102138.00;;;1.60
73937;BMP180;59249;59.736;30.568;2023-02-14T14:40:25;102150.00;;;1.60
73937;BMP180;59249;59.736;30.568;2023-02-14T14:42:59;102145.00;;;1.50
73937;BMP180;59249;59.736;30.568;2023-02-14T14:45:32;102149.00;;;1.30
73937;BMP180;59249;59.736;30.568;2023-02-14T14:48:07;102157.00;;;1.30
73937;BMP180;59249;59.736;30.568;2023-02-14T14:50:42;102157.00;;;1.20
73937;BMP180;59249;59.736;30.568;2023-02-14T14:53:21;102162.00;;;1.20
73937;BMP180;59249;59.736;30.568;2023-02-14T14:55:52;102156.00;;;1.10
73937;BMP180;59249;59.736;30.568;2023-02-14T14:58:36;102161.00;;;1.10